Time;durP1;ratioP1;P1;durP2;ratioP2;P2;SDS_P1;SDS_P2;PMS_P1;PMS_P2;Temp;Humidity;BMP_temperature;BMP_pressure;BME280_temperature;BME280_humidity;BME280_pressure;Samples;Min_cycle;Max_cycle;Signal;HPM_P1;HPM_P2
2021/09/23 00:01:57;;;;;;;21.73;17.15;;;12.70;99.90;;;;;;5053864;28;20274;-93
2021/09/23 00:04:34;;;;;;;26.20;17.95;;;12.60;99.90;;;;;;5053848;28;20193;-94
2021/09/23 00:07:13;;;;;;;23.42;18.23;;;12.60;99.90;;;;;;5054076;28;20245;-94
2021/09/23 00:09:48;;;;;;;20.98;17.40;;;12.60;99.90;;;;;;5053629;28;20368;-94
2021/09/23 00:12:14;;;;;;;25.02;17.95;;;12.60;99.90;;;;;;5054039;28;20656;-93
2021/09/23 00:14:47;;;;;;;24.92;19.10;;;12.60;99.90;;;;;;5053801;28;20667;-94
2021/09/23 00:17:28;;;;;;;23.95;18.25;;;12.60;99.90;;;;;;5054229;28;20180;-93
2021/09/23 00:20:20;;;;;;;24.63;18.42;;;12.60;99.90;;;;;;5053837;28;20166;-93
2021/09/23 00:22:46;;;;;;;23.85;18.35;;;12.60;99.90;;;;;;5053855;28;20170;-94
2021/09/23 00:25:14;;;;;;;24.27;19.27;;;12.60;99.90;;;;;;5053671;28;20190;-94
2021/09/23 00:27:41;;;;;;;27.40;18.88;;;12.60;99.90;;;;;;5053578;28;20166;-93
2021/09/23 00:30:09;;;;;;;26.52;19.63;;;12.60;99.90;;;;;;5053724;28;20173;-94
2021/09/23 00:32:34;;;;;;;26.45;20.63;;;12.50;99.90;;;;;;5053665;28;20175;-94
2021/09/23 00:35:05;;;;;;;23.88;18.40;;;12.60;99.90;;;;;;5053951;28;20170;-94
2021/09/23 00:37:34;;;;;;;23.15;19.00;;;12.50;99.90;;;;;;5053890;28;20231;-93
2021/09/23 00:40:01;;;;;;;27.58;20.02;;;12.50;99.90;;;;;;5054003;28;20166;-93
2021/09/23 00:42:29;;;;;;;24.73;18.98;;;12.50;99.90;;;;;;5054439;28;20181;-94
2021/09/23 00:45:05;;;;;;;23.95;18.20;;;12.50;99.90;;;;;;5054253;28;20198;-94
2021/09/23 00:47:31;;;;;;;25.30;19.98;;;12.50;99.90;;;;;;5056602;28;20162;-95
2021/09/23 00:51:08;;;;;;;30.83;19.40;;;12.50;99.90;;;;;;5058143;28;20170;-94
2021/09/23 00:53:44;;;;;;;26.95;20.25;;;12.50;99.90;;;;;;5057978;28;20166;-94
2021/09/23 00:56:11;;;;;;;28.65;19.00;;;12.50;99.90;;;;;;5057932;28;20619;-94
2021/09/23 00:58:39;;;;;;;25.92;20.20;;;12.40;99.90;;;;;;5058080;28;20261;-95
2021/09/23 01:01:15;;;;;;;27.23;20.00;;;12.40;99.90;;;;;;5058253;28;20166;-95
2021/09/23 01:03:47;;;;;;;25.67;20.67;;;12.30;99.90;;;;;;5058399;28;20169;-95
2021/09/23 01:06:13;;;;;;;25.30;20.13;;;12.30;99.90;;;;;;5058210;28;20173;-94
2021/09/23 01:08:53;;;;;;;25.85;19.55;;;12.20;99.90;;;;;;5057269;28;20229;-93
2021/09/23 01:11:27;;;;;;;23.95;17.90;;;12.20;99.90;;;;;;5057186;28;20683;-93
2021/09/23 01:14:14;;;;;;;30.00;20.65;;;12.30;99.90;;;;;;5057061;28;20182;-93
2021/09/23 01:16:45;;;;;;;24.55;20.05;;;12.30;99.90;;;;;;5057757;28;20304;-94
2021/09/23 01:19:15;;;;;;;25.92;20.60;;;12.30;99.90;;;;;;5057481;28;20209;-93
2021/09/23 01:21:43;;;;;;;23.23;19.30;;;12.30;99.90;;;;;;5057284;28;20184;-94
2021/09/23 01:24:10;;;;;;;26.90;20.23;;;12.30;99.90;;;;;;5057518;28;20197;-95
2021/09/23 01:26:50;;;;;;;28.90;21.00;;;12.20;99.90;;;;;;5057163;28;20174;-93
2021/09/23 01:29:40;;;;;;;28.13;20.23;;;12.20;99.90;;;;;;5057299;28;20197;-93
2021/09/23 01:32:07;;;;;;;25.40;20.10;;;12.30;99.90;;;;;;5056923;28;20253;-93
2021/09/23 01:34:43;;;;;;;27.88;20.50;;;12.30;99.90;;;;;;5057061;28;20200;-93
2021/09/23 01:37:16;;;;;;;26.33;19.92;;;12.30;99.90;;;;;;5056686;28;20197;-95
2021/09/23 01:39:45;;;;;;;23.55;18.95;;;12.20;99.90;;;;;;5057531;28;20280;-93
2021/09/23 01:42:21;;;;;;;24.67;19.00;;;12.20;99.90;;;;;;5056768;28;20174;-94
2021/09/23 01:44:48;;;;;;;23.17;18.98;;;12.20;99.90;;;;;;5056658;28;20764;-94
2021/09/23 01:47:37;;;;;;;29.38;21.92;;;12.20;99.90;;;;;;5056326;28;20265;-94
2021/09/23 01:50:10;;;;;;;25.75;21.13;;;12.20;99.90;;;;;;5056484;28;20251;-92
2021/09/23 01:52:56;;;;;;;27.33;20.77;;;12.20;99.90;;;;;;5056603;28;20169;-92
2021/09/23 01:55:25;;;;;;;27.67;21.58;;;12.20;99.90;;;;;;5056256;28;20201;-94
2021/09/23 01:57:52;;;;;;;26.75;20.60;;;12.20;99.90;;;;;;5056630;28;20198;-93
2021/09/23 02:00:18;;;;;;;27.95;20.88;;;12.20;99.90;;;;;;5055739;28;20196;-93
2021/09/23 02:02:44;;;;;;;27.02;21.52;;;12.20;99.90;;;;;;5056159;28;20691;-94
2021/09/23 02:05:10;;;;;;;32.10;21.80;;;12.20;99.90;;;;;;5055870;28;20205;-93
2021/09/23 02:07:36;;;;;;;29.33;21.63;;;12.20;99.90;;;;;;5055759;28;20638;-94
2021/09/23 02:10:08;;;;;;;32.33;22.50;;;12.20;99.90;;;;;;5055381;28;20328;-95
2021/09/23 02:12:56;;;;;;;28.70;22.48;;;12.20;99.90;;;;;;5055860;28;20211;-93
2021/09/23 02:15:35;;;;;;;26.25;19.95;;;12.20;99.90;;;;;;5055864;28;20209;-93
2021/09/23 02:18:01;;;;;;;31.52;23.40;;;12.20;99.90;;;;;;5055651;28;20220;-94
2021/09/23 02:20:52;;;;;;;29.75;22.10;;;12.20;99.90;;;;;;5055768;28;20641;-93
2021/09/23 02:23:19;;;;;;;29.60;22.77;;;12.20;99.90;;;;;;5055471;28;20177;-94
2021/09/23 02:25:56;;;;;;;32.17;22.17;;;12.20;99.90;;;;;;5055748;28;20201;-93
2021/09/23 02:28:40;;;;;;;30.52;23.13;;;12.10;99.90;;;;;;5055474;28;20653;-92
2021/09/23 02:31:16;;;;;;;30.10;23.17;;;12.10;99.90;;;;;;5055508;28;20261;-93
2021/09/23 02:33:44;;;;;;;30.83;22.33;;;12.10;99.90;;;;;;5055357;28;20202;-92
2021/09/23 02:36:11;;;;;;;29.85;22.90;;;12.10;99.90;;;;;;5055540;28;20170;-93
2021/09/23 02:38:43;;;;;;;29.73;22.98;;;12.10;99.90;;;;;;5418810;22;20234;-94
2021/09/23 02:41:09;;;;;;;29.77;21.48;;;12.20;99.90;;;;;;5055156;28;20644;-92
2021/09/23 02:43:38;;;;;;;28.88;22.17;;;12.10;99.90;;;;;;5055055;28;20162;-93
2021/09/23 02:46:25;;;;;;;32.00;23.48;;;12.20;99.90;;;;;;5055185;28;20531;-92
2021/09/23 02:49:02;;;;;;;35.35;23.83;;;12.10;99.90;;;;;;5042339;28;20673;-93
2021/09/23 02:51:58;;;;;;;34.97;23.63;;;12.10;99.90;;;;;;5034893;28;20261;-92
2021/09/23 02:54:30;;;;;;;32.83;24.70;;;12.20;99.90;;;;;;5034890;28;20531;-92
2021/09/23 02:57:08;;;;;;;31.63;23.52;;;12.20;99.90;;;;;;5034908;28;20170;-93
2021/09/23 02:59:42;;;;;;;34.80;24.85;;;12.20;99.90;;;;;;5034485;28;20305;-93
2021/09/23 03:02:08;;;;;;;32.10;23.48;;;12.10;99.90;;;;;;5034650;28;20175;-92
2021/09/23 03:04:44;;;;;;;31.15;23.40;;;12.10;99.90;;;;;;5034413;28;20198;-94
2021/09/23 03:07:13;;;;;;;29.83;21.30;;;12.10;99.90;;;;;;5034574;28;20225;-94
2021/09/23 03:09:39;;;;;;;32.47;23.75;;;12.10;99.90;;;;;;5034043;28;20206;-92
2021/09/23 03:12:20;;;;;;;32.70;24.60;;;12.10;99.90;;;;;;5033979;28;20175;-92
2021/09/23 03:14:58;;;;;;;31.67;24.23;;;12.10;99.90;;;;;;5034368;28;20173;-93
2021/09/23 03:17:24;;;;;;;34.15;24.50;;;12.10;99.90;;;;;;5034216;28;20190;-93
2021/09/23 03:19:59;;;;;;;34.58;24.63;;;12.10;99.90;;;;;;5034128;28;20175;-93
2021/09/23 03:22:30;;;;;;;36.75;25.77;;;12.00;99.90;;;;;;5034249;28;20170;-94
2021/09/23 03:25:07;;;;;;;38.72;24.92;;;12.00;99.90;;;;;;5034193;28;20198;-93
2021/09/23 03:27:46;;;;;;;34.40;26.05;;;12.00;99.90;;;;;;5034078;28;20249;-93
2021/09/23 03:30:20;;;;;;;34.05;24.17;;;12.00;99.90;;;;;;5034254;28;20201;-93
2021/09/23 03:32:53;;;;;;;36.17;24.80;;;12.00;99.90;;;;;;5034059;28;20166;-93
2021/09/23 03:35:21;;;;;;;32.92;23.95;;;12.00;99.90;;;;;;5034181;28;20202;-93
2021/09/23 03:37:49;;;;;;;34.55;25.35;;;12.00;99.90;;;;;;5032880;28;20195;-94
2021/09/23 03:40:21;;;;;;;36.70;25.98;;;12.00;99.90;;;;;;5034164;28;20191;-94
2021/09/23 03:42:47;;;;;;;37.15;25.50;;;12.00;99.90;;;;;;5034058;28;20167;-92
2021/09/23 03:45:50;;;;;;;38.70;26.55;;;12.00;99.90;;;;;;5033812;28;20202;-94
2021/09/23 03:48:20;;;;;;;35.60;23.55;;;12.00;99.90;;;;;;5033719;28;20281;-94
2021/09/23 03:50:58;;;;;;;31.30;23.33;;;11.90;99.90;;;;;;5033972;28;20183;-93
2021/09/23 03:53:25;;;;;;;35.42;24.98;;;12.00;99.90;;;;;;5034056;28;20174;-94
2021/09/23 03:55:51;;;;;;;34.10;25.88;;;12.00;99.90;;;;;;5034231;28;20180;-93
2021/09/23 03:58:18;;;;;;;34.88;24.05;;;11.90;99.90;;;;;;5033629;28;20202;-94
2021/09/23 04:01:04;;;;;;;33.53;25.00;;;11.90;99.90;;;;;;5033995;28;20665;-94
2021/09/23 04:03:37;;;;;;;34.75;24.85;;;11.90;99.90;;;;;;5033847;28;20179;-94
2021/09/23 04:06:05;;;;;;;36.63;24.73;;;11.90;99.90;;;;;;5033931;28;20270;-95
2021/09/23 04:08:40;;;;;;;35.97;24.67;;;11.90;99.90;;;;;;5033868;28;20194;-94
2021/09/23 04:11:30;;;;;;;36.90;25.85;;;11.90;99.90;;;;;;5033884;28;20173;-94
2021/09/23 04:14:06;;;;;;;38.05;26.05;;;11.90;99.90;;;;;;5033893;28;20170;-93
2021/09/23 04:16:33;;;;;;;37.83;27.30;;;11.90;99.90;;;;;;5033622;28;20280;-95
2021/09/23 04:19:07;;;;;;;36.58;24.95;;;11.80;99.90;;;;;;5033741;28;20206;-94
2021/09/23 04:21:48;;;;;;;36.08;26.25;;;11.80;99.90;;;;;;5033554;28;20171;-92
2021/09/23 04:24:15;;;;;;;36.30;26.48;;;11.80;99.90;;;;;;5033766;28;20194;-93
2021/09/23 04:26:41;;;;;;;39.08;26.45;;;11.80;99.90;;;;;;5035688;28;20172;-92
2021/09/23 04:29:09;;;;;;;39.72;25.70;;;11.90;99.90;;;;;;5035782;28;20190;-93
2021/09/23 04:31:52;;;;;;;34.28;25.40;;;11.90;99.90;;;;;;5033512;28;20166;-93
2021/09/23 04:34:36;;;;;;;36.05;26.80;;;11.90;99.90;;;;;;5033638;28;20178;-94
2021/09/23 04:37:03;;;;;;;34.67;25.17;;;11.80;99.90;;;;;;5033885;28;20248;-93
2021/09/23 04:39:33;;;;;;;32.60;24.17;;;11.80;99.90;;;;;;5030342;28;20284;-94
2021/09/23 04:41:59;;;;;;;40.25;27.63;;;11.80;99.90;;;;;;5033369;28;20183;-94
2021/09/23 04:44:44;;;;;;;38.08;27.17;;;11.80;99.90;;;;;;5033088;28;20736;-93
2021/09/23 04:47:21;;;;;;;33.92;24.65;;;11.80;99.90;;;;;;5033100;28;20737;-93
2021/09/23 04:50:16;;;;;;;37.40;26.95;;;11.80;99.90;;;;;;5033212;28;20193;-93
2021/09/23 04:52:42;;;;;;;41.13;27.95;;;11.80;99.90;;;;;;5033398;28;20163;-93
2021/09/23 04:55:08;;;;;;;41.58;26.70;;;11.80;99.90;;;;;;5033166;28;20182;-94
2021/09/23 04:57:34;;;;;;;40.30;27.77;;;11.80;99.90;;;;;;5032954;28;20171;-93
2021/09/23 05:00:05;;;;;;;40.35;27.60;;;11.80;99.90;;;;;;5033002;28;20261;-93
2021/09/23 05:02:32;;;;;;;39.00;28.60;;;11.80;99.90;;;;;;5033151;28;20250;-92
2021/09/23 05:05:07;;;;;;;36.72;26.52;;;11.70;99.90;;;;;;5033076;28;20621;-92
2021/09/23 05:07:33;;;;;;;39.80;28.25;;;11.80;99.90;;;;;;5033103;28;20171;-92
2021/09/23 05:09:59;;;;;;;42.38;26.33;;;11.70;99.90;;;;;;5033222;28;20167;-94
2021/09/23 05:12:32;;;;;;;35.05;27.27;;;11.70;99.90;;;;;;5033284;28;20677;-93
2021/09/23 05:15:02;;;;;;;44.35;29.45;;;11.70;99.90;;;;;;5033209;28;20186;-94
2021/09/23 05:17:37;;;;;;;41.10;27.38;;;11.70;99.90;;;;;;5033359;28;20305;-93
2021/09/23 05:20:05;;;;;;;39.20;28.42;;;11.70;99.90;;;;;;5033097;28;20170;-94
2021/09/23 05:22:33;;;;;;;44.72;29.83;;;11.60;99.90;;;;;;5032879;28;20236;-92
2021/09/23 05:25:08;;;;;;;40.85;28.50;;;11.60;99.90;;;;;;5032783;28;20198;-93
2021/09/23 05:27:34;;;;;;;41.47;28.33;;;11.70;99.90;;;;;;5033126;28;20166;-93
2021/09/23 05:30:12;;;;;;;43.22;30.13;;;11.60;99.90;;;;;;5032976;28;20166;-92
2021/09/23 05:32:44;;;;;;;42.13;28.67;;;11.70;99.90;;;;;;5032600;28;20179;-94
2021/09/23 05:35:14;;;;;;;38.08;27.17;;;11.60;99.90;;;;;;5035398;28;20221;-93
2021/09/23 05:37:47;;;;;;;36.47;26.02;;;11.70;99.90;;;;;;5036270;28;20174;-93
2021/09/23 05:40:14;;;;;;;37.80;27.08;;;11.70;99.90;;;;;;5036479;28;20697;-94
2021/09/23 05:43:12;;;;;;;40.45;28.02;;;11.70;99.90;;;;;;5036518;28;20200;-94
2021/09/23 05:45:40;;;;;;;38.42;28.33;;;11.70;99.90;;;;;;5036226;28;20198;-93
2021/09/23 05:48:06;;;;;;;42.20;27.75;;;11.80;99.90;;;;;;5036353;28;20201;-94
2021/09/23 05:50:49;;;;;;;39.55;28.00;;;11.80;99.90;;;;;;5036219;28;20163;-94
2021/09/23 05:53:24;;;;;;;42.45;27.30;;;11.80;99.90;;;;;;5036317;28;20167;-93
2021/09/23 05:56:09;;;;;;;39.40;27.33;;;11.80;99.90;;;;;;5036286;28;20166;-92
2021/09/23 05:58:52;;;;;;;43.90;27.50;;;11.90;99.90;;;;;;5036110;28;20198;-92
2021/09/23 06:01:18;;;;;;;42.47;26.40;;;11.90;99.90;;;;;;5036106;28;20661;-93
2021/09/23 06:03:44;;;;;;;41.58;27.65;;;12.00;99.90;;;;;;5036083;28;20162;-94
2021/09/23 06:06:10;;;;;;;39.78;26.63;;;12.00;99.90;;;;;;5036634;28;20199;-94
2021/09/23 06:08:37;;;;;;;36.63;26.27;;;12.00;99.90;;;;;;5035897;28;20195;-93
2021/09/23 06:11:10;;;;;;;39.60;27.52;;;12.00;99.90;;;;;;5036260;28;20167;-94
2021/09/23 06:13:41;;;;;;;38.65;26.55;;;12.00;99.90;;;;;;5036247;28;20611;-94
2021/09/23 06:16:14;;;;;;;40.75;28.08;;;12.00;99.90;;;;;;5035890;28;20166;-94
2021/09/23 06:18:42;;;;;;;39.63;26.17;;;12.00;99.90;;;;;;5035716;28;20551;-94
2021/09/23 06:21:28;;;;;;;36.33;25.02;;;12.10;99.90;;;;;;5035691;28;20170;-93
2021/09/23 06:23:55;;;;;;;37.10;25.70;;;12.10;99.90;;;;;;5039788;28;20170;-93
2021/09/23 06:26:37;;;;;;;35.63;24.55;;;12.10;99.90;;;;;;5035934;28;20238;-94
2021/09/23 06:29:21;;;;;;;36.08;25.38;;;12.20;99.90;;;;;;5035717;28;20194;-94
2021/09/23 06:31:53;;;;;;;35.55;24.75;;;12.20;99.90;;;;;;5035587;28;20559;-93
2021/09/23 06:34:35;;;;;;;36.33;25.65;;;12.30;99.90;;;;;;5035724;28;20177;-94
2021/09/23 06:37:02;;;;;;;40.25;26.25;;;12.30;99.90;;;;;;5035254;28;20212;-95
2021/09/23 06:39:28;;;;;;;34.28;24.00;;;12.40;99.90;;;;;;5034366;28;20297;-93
2021/09/23 06:42:04;;;;;;;36.13;24.60;;;12.40;99.90;;;;;;5035355;28;20636;-94
2021/09/23 06:44:48;;;;;;;38.33;25.77;;;12.50;99.90;;;;;;5034930;28;20201;-94
2021/09/23 06:47:36;;;;;;;34.28;23.42;;;12.60;99.90;;;;;;5035647;28;20228;-93
2021/09/23 06:50:27;;;;;;;38.33;22.85;;;12.60;99.90;;;;;;5035093;28;20166;-93
2021/09/23 06:52:55;;;;;;;39.10;23.55;;;12.60;99.90;;;;;;5035137;28;20182;-92
2021/09/23 06:55:24;;;;;;;38.35;23.60;;;12.60;99.90;;;;;;5035095;28;20171;-94
2021/09/23 06:58:08;;;;;;;31.67;22.55;;;12.60;99.90;;;;;;5035912;28;20209;-95
2021/09/23 07:00:36;;;;;;;34.00;23.17;;;12.70;99.90;;;;;;5035632;28;20622;-95
2021/09/23 07:03:12;;;;;;;33.10;22.30;;;12.70;99.90;;;;;;5035549;28;20182;-94
2021/09/23 07:05:58;;;;;;;33.35;23.10;;;12.80;99.90;;;;;;5035065;28;20228;-94
2021/09/23 07:08:36;;;;;;;37.22;23.70;;;12.80;99.90;;;;;;5035929;28;20200;-92
2021/09/23 07:11:10;;;;;;;33.22;23.23;;;13.00;99.90;;;;;;5035890;28;20630;-94
2021/09/23 07:13:41;;;;;;;31.70;21.90;;;13.10;99.90;;;;;;5035146;28;20182;-94
2021/09/23 07:16:19;;;;;;;37.35;22.63;;;13.20;99.90;;;;;;5034992;28;20644;-93
2021/09/23 07:18:46;;;;;;;30.80;22.25;;;13.20;99.90;;;;;;5035125;28;20269;-95
2021/09/23 07:21:14;;;;;;;31.95;20.98;;;13.30;99.90;;;;;;5035149;28;20174;-93
2021/09/23 07:23:40;;;;;;;31.98;21.60;;;13.30;99.90;;;;;;5035020;28;20642;-93
2021/09/23 07:26:09;;;;;;;28.40;20.75;;;13.40;99.90;;;;;;5035093;28;20238;-95
2021/09/23 07:28:48;;;;;;;31.20;21.10;;;13.40;99.90;;;;;;5034349;28;20285;-92
2021/09/23 07:31:27;;;;;;;31.83;20.67;;;13.40;99.90;;;;;;5034754;28;20167;-93
2021/09/23 07:33:57;;;;;;;25.58;18.70;;;13.40;99.90;;;;;;5034628;28;20167;-91
2021/09/23 07:36:30;;;;;;;27.52;19.95;;;13.50;99.90;;;;;;5035268;28;20173;-94
2021/09/23 07:39:12;;;;;;;24.77;19.30;;;13.50;99.90;;;;;;5034511;28;20701;-93
2021/09/23 07:41:50;;;;;;;30.33;20.65;;;13.60;99.90;;;;;;5034556;28;20560;-91
2021/09/23 07:44:33;;;;;;;26.50;19.27;;;13.70;99.90;;;;;;5034261;28;20194;-92
2021/09/23 07:47:13;;;;;;;28.27;17.98;;;13.90;99.90;;;;;;5034633;28;20536;-94
2021/09/23 07:49:41;;;;;;;24.50;17.88;;;14.00;99.90;;;;;;5035038;28;20353;-94
2021/09/23 07:52:14;;;;;;;23.48;16.35;;;14.20;99.90;;;;;;5034749;28;20159;-93
2021/09/23 07:55:00;;;;;;;23.33;16.27;;;14.30;99.90;;;;;;5035430;28;20198;-92
2021/09/23 07:57:26;;;;;;;24.67;16.50;;;14.40;99.90;;;;;;5034296;28;20623;-93
2021/09/23 07:59:52;;;;;;;22.65;15.82;;;14.40;99.90;;;;;;5035278;28;20182;-93
2021/09/23 08:02:18;;;;;;;22.58;14.85;;;14.50;99.90;;;;;;5035004;28;20174;-94
2021/09/23 08:04:57;;;;;;;23.77;15.35;;;14.40;99.90;;;;;;5035953;28;20221;-94
2021/09/23 08:07:25;;;;;;;22.75;15.90;;;14.50;99.90;;;;;;5035172;28;20179;-92
2021/09/23 08:09:51;;;;;;;18.92;14.93;;;14.50;99.90;;;;;;5035988;28;20226;-92
2021/09/23 08:12:18;;;;;;;22.60;15.18;;;14.50;99.90;;;;;;5035333;28;20279;-93
2021/09/23 08:14:44;;;;;;;24.17;15.88;;;14.50;99.90;;;;;;5035086;28;20183;-94
2021/09/23 08:17:19;;;;;;;21.25;14.35;;;14.50;99.90;;;;;;5036504;28;20254;-90
2021/09/23 08:19:48;;;;;;;20.35;14.18;;;14.50;99.90;;;;;;5034859;28;20201;-94
2021/09/23 08:22:17;;;;;;;21.42;14.82;;;14.60;99.90;;;;;;5035381;28;20162;-93
2021/09/23 08:24:46;;;;;;;19.30;14.35;;;14.60;99.90;;;;;;5034460;28;20305;-91
2021/09/23 08:27:12;;;;;;;20.92;13.52;;;14.70;99.90;;;;;;5034884;28;20171;-93
2021/09/23 08:30:12;;;;;;;19.77;14.13;;;14.70;99.90;;;;;;5035182;28;20218;-94
2021/09/23 08:32:41;;;;;;;20.85;13.68;;;14.80;99.90;;;;;;5035495;28;20182;-91
2021/09/23 08:35:15;;;;;;;17.90;12.63;;;14.90;99.90;;;;;;5035436;28;20642;-93
2021/09/23 08:37:42;;;;;;;16.98;12.63;;;15.00;99.90;;;;;;5034934;28;20174;-93
2021/09/23 08:40:23;;;;;;;17.58;12.80;;;15.00;99.90;;;;;;5033408;28;20268;-92
2021/09/23 08:43:16;;;;;;;18.92;13.10;;;15.00;99.90;;;;;;5034930;28;20182;-94
2021/09/23 08:45:44;;;;;;;17.30;12.40;;;15.10;99.90;;;;;;5034695;28;20284;-93
2021/09/23 08:48:10;;;;;;;19.35;12.75;;;15.10;99.90;;;;;;5034690;28;20195;-95
2021/09/23 08:50:53;;;;;;;15.55;11.38;;;15.10;99.90;;;;;;5035058;28;20212;-92
2021/09/23 08:53:20;;;;;;;17.48;12.02;;;15.10;99.90;;;;;;5034661;28;20174;-93
2021/09/23 08:56:04;;;;;;;15.55;11.18;;;15.10;99.90;;;;;;5035205;28;20206;-94
2021/09/23 08:58:32;;;;;;;18.70;11.63;;;15.10;99.90;;;;;;5034829;28;20206;-93
2021/09/23 09:01:15;;;;;;;18.38;11.57;;;15.10;99.90;;;;;;5034235;28;20178;-93
2021/09/23 09:03:44;;;;;;;16.35;10.70;;;15.10;99.90;;;;;;5034259;28;20224;-94
2021/09/23 09:06:18;;;;;;;18.42;12.00;;;15.00;99.90;;;;;;5034122;28;20205;-93
2021/09/23 09:08:48;;;;;;;18.35;10.23;;;15.00;99.90;;;;;;5034724;28;20198;-93
2021/09/23 09:11:16;;;;;;;16.88;11.45;;;15.10;99.90;;;;;;5037909;28;20171;-94
2021/09/23 09:14:23;;;;;;;14.90;11.38;;;15.20;99.90;;;;;;5037791;28;20186;-94
2021/09/23 09:17:03;;;;;;;17.17;11.13;;;15.40;99.90;;;;;;5038214;28;20166;-94
2021/09/23 09:19:50;;;;;;;13.43;9.77;;;15.60;99.90;;;;;;5038890;28;20308;-95
2021/09/23 09:22:22;;;;;;;15.15;10.57;;;15.80;99.90;;;;;;5039232;28;20179;-94
2021/09/23 09:24:57;;;;;;;15.95;10.25;;;16.10;99.90;;;;;;5038385;28;20202;-94
2021/09/23 09:28:18;;;;;;;17.67;10.32;;;16.20;99.90;;;;;;5037683;28;20162;-94
2021/09/23 09:30:45;;;;;;;13.77;9.27;;;16.20;99.90;;;;;;4981926;28;20199;-92
2021/09/23 09:33:20;;;;;;;17.58;9.45;;;16.40;99.90;;;;;;5011883;28;20210;-95
2021/09/23 09:35:54;;;;;;;14.50;9.13;;;16.60;99.90;;;;;;5038281;28;20175;-93
2021/09/23 09:38:23;;;;;;;15.27;8.60;;;16.80;99.90;;;;;;5038365;28;20195;-95
2021/09/23 09:40:54;;;;;;;13.38;8.07;;;16.80;99.90;;;;;;5038905;28;20195;-92
2021/09/23 09:43:21;;;;;;;11.55;8.32;;;16.90;99.90;;;;;;5039364;28;20642;-95
2021/09/23 09:45:49;;;;;;;14.82;8.27;;;16.90;99.90;;;;;;5038865;28;20198;-95
2021/09/23 09:48:29;;;;;;;11.50;8.20;;;16.90;99.90;;;;;;5038301;28;20217;-94
2021/09/23 09:51:12;;;;;;;12.65;8.10;;;16.90;99.90;;;;;;5038174;28;20194;-96
2021/09/23 09:53:39;;;;;;;11.10;7.75;;;16.90;99.90;;;;;;5038484;28;20178;-94
2021/09/23 09:56:24;;;;;;;13.90;7.63;;;16.90;99.90;;;;;;5037406;28;20224;-93
2021/09/23 09:59:10;;;;;;;13.00;8.38;;;16.90;99.90;;;;;;5037665;28;20680;-94
2021/09/23 10:01:37;;;;;;;12.85;7.45;;;16.90;99.90;;;;;;5038076;28;20181;-93
2021/09/23 10:04:04;;;;;;;11.27;7.28;;;17.00;99.90;;;;;;5038073;28;20178;-93
2021/09/23 10:06:31;;;;;;;11.68;6.78;;;17.00;99.90;;;;;;5037348;28;20167;-92
2021/09/23 10:08:59;;;;;;;10.23;7.03;;;17.00;99.90;;;;;;5038358;28;20198;-95
2021/09/23 10:14:52;;;;;;;9.75;6.13;;;17.20;99.90;;;;;;5038859;28;20170;-94
2021/09/23 10:17:18;;;;;;;9.65;5.68;;;17.30;99.90;;;;;;5038779;28;20179;-95
2021/09/23 10:19:51;;;;;;;10.25;6.43;;;17.40;99.90;;;;;;5036937;28;20209;-94
2021/09/23 10:22:17;;;;;;;9.65;5.80;;;17.50;99.90;;;;;;5037881;28;20213;-94
2021/09/23 10:24:59;;;;;;;12.20;5.43;;;17.60;99.90;;;;;;5037128;28;20198;-93
2021/09/23 10:28:02;;;;;;;13.48;5.90;;;17.60;99.90;;;;;;5037095;28;20198;-95
2021/09/23 10:30:39;;;;;;;14.98;5.70;;;17.60;99.90;;;;;;5037963;28;20170;-92
2021/09/23 10:33:07;;;;;;;8.15;5.20;;;17.60;99.90;;;;;;5038311;28;20545;-93
2021/09/23 10:35:58;;;;;;;8.88;5.20;;;17.60;99.90;;;;;;5038093;28;20209;-93
2021/09/23 10:38:24;;;;;;;11.07;5.47;;;17.60;99.90;;;;;;5037191;28;20205;-95
2021/09/23 10:40:56;;;;;;;9.07;4.60;;;17.70;99.90;;;;;;5037489;28;20622;-94
2021/09/23 10:43:23;;;;;;;8.93;4.68;;;17.70;99.90;;;;;;5037558;28;20180;-93
2021/09/23 10:45:52;;;;;;;11.98;4.70;;;17.80;99.90;;;;;;5037520;28;20194;-94
2021/09/23 10:48:20;;;;;;;8.10;4.35;;;17.80;99.90;;;;;;5038280;28;20205;-94
2021/09/23 10:50:54;;;;;;;9.77;4.57;;;17.90;99.90;;;;;;5037558;28;20633;-93
2021/09/23 10:53:20;;;;;;;7.43;4.28;;;17.90;99.90;;;;;;5037447;28;20166;-93
2021/09/23 10:55:52;;;;;;;8.27;3.88;;;17.80;99.90;;;;;;5038658;28;20645;-95
2021/09/23 10:58:20;;;;;;;5.13;3.75;;;17.90;99.90;;;;;;5037226;28;20697;-93
2021/09/23 11:00:51;;;;;;;6.22;3.80;;;17.90;99.90;;;;;;5037063;28;20174;-95
2021/09/23 11:03:18;;;;;;;8.30;3.88;;;17.90;99.90;;;;;;5037261;28;20178;-95
2021/09/23 11:06:10;;;;;;;5.60;3.20;;;18.00;99.90;;;;;;5037473;28;20812;-93
2021/09/23 11:08:50;;;;;;;10.98;4.00;;;18.10;99.90;;;;;;5037568;28;20198;-94
2021/09/23 11:11:19;;;;;;;8.15;3.80;;;18.10;99.90;;;;;;5038583;28;20638;-92
2021/09/23 11:13:49;;;;;;;7.13;3.50;;;18.20;99.90;;;;;;5038332;28;20175;-93
2021/09/23 11:16:18;;;;;;;5.78;3.55;;;18.30;99.90;;;;;;5037958;28;20174;-94
2021/09/23 11:18:48;;;;;;;7.70;3.67;;;18.30;99.90;;;;;;5037074;28;20209;-95
2021/09/23 11:21:38;;;;;;;7.00;4.20;;;18.40;99.90;;;;;;5036906;28;20254;-94
2021/09/23 11:24:05;;;;;;;10.80;3.90;;;18.50;99.90;;;;;;5037323;28;20177;-96
2021/09/23 11:26:38;;;;;;;6.25;3.80;;;18.50;99.90;;;;;;5036810;28;20262;-95
2021/09/23 11:29:21;;;;;;;6.45;3.75;;;18.60;99.90;;;;;;5036841;28;20305;-93
2021/09/23 11:32:01;;;;;;;8.25;3.63;;;18.70;99.90;;;;;;5035787;28;20178;-94
2021/09/23 11:35:07;;;;;;;4.57;2.83;;;18.80;99.90;;;;;;5036839;28;20174;-94
2021/09/23 11:37:39;;;;;;;5.18;3.33;;;18.90;99.90;;;;;;5036688;28;20638;-94
2021/09/23 11:40:07;;;;;;;6.47;4.22;;;19.00;99.90;;;;;;5037431;28;20226;-96
2021/09/23 11:42:50;;;;;;;4.80;4.03;;;19.10;99.90;;;;;;5036449;28;20171;-94
2021/09/23 11:45:21;;;;;;;10.32;4.60;;;19.20;99.90;;;;;;5036822;28;20202;-94
2021/09/23 11:48:12;;;;;;;5.78;4.38;;;19.20;99.90;;;;;;5036873;28;20190;-93
2021/09/23 11:51:20;;;;;;;6.90;3.63;;;19.10;99.90;;;;;;5036831;28;20566;-94
2021/09/23 11:53:54;;;;;;;5.15;3.92;;;19.10;99.90;;;;;;5037609;28;20162;-93
2021/09/23 11:56:41;;;;;;;7.07;4.50;;;19.20;99.90;;;;;;5037127;28;20192;-94
2021/09/23 11:59:24;;;;;;;6.32;4.28;;;19.20;99.90;;;;;;5036865;28;20221;-94
2021/09/23 12:02:06;;;;;;;9.32;4.60;;;19.30;99.90;;;;;;5036015;28;20220;-93
2021/09/23 12:05:13;;;;;;;6.13;3.95;;;19.30;99.90;;;;;;5035643;28;20198;-95
2021/09/23 12:07:44;;;;;;;7.00;4.35;;;19.40;99.90;;;;;;5036485;28;20170;-96
2021/09/23 12:10:20;;;;;;;9.93;5.28;;;19.40;99.90;;;;;;5038277;28;20250;-95
2021/09/23 12:13:01;;;;;;;12.52;5.65;;;19.40;99.90;;;;;;5037296;28;20554;-94
2021/09/23 12:15:31;;;;;;;13.25;5.47;;;19.40;99.90;;;;;;5036030;28;20167;-94
2021/09/23 12:18:03;;;;;;;6.82;4.55;;;19.30;99.90;;;;;;5035674;28;20213;-95
2021/09/23 12:20:42;;;;;;;5.28;3.80;;;19.30;99.90;;;;;;5035388;28;20175;-95
2021/09/23 12:23:32;;;;;;;6.68;4.95;;;19.20;99.90;;;;;;5035363;28;20264;-95
2021/09/23 12:26:18;;;;;;;12.30;6.07;;;19.20;99.90;;;;;;5035397;28;20199;-96
2021/09/23 12:28:57;;;;;;;11.63;6.30;;;19.20;99.90;;;;;;5035685;28;20198;-95
2021/09/23 12:31:44;;;;;;;11.93;5.60;;;19.20;99.90;;;;;;5035670;28;20185;-94
2021/09/23 12:34:15;;;;;;;10.63;6.35;;;19.20;99.90;;;;;;5035132;28;20258;-96
2021/09/23 12:37:03;;;;;;;13.45;6.13;;;19.10;99.90;;;;;;5035144;28;20273;-93
2021/09/23 12:39:45;;;;;;;8.68;5.80;;;19.10;99.90;;;;;;5036536;28;20222;-95
2021/09/23 12:42:19;;;;;;;9.75;5.55;;;19.10;99.90;;;;;;5036729;28;20645;-94
2021/09/23 12:45:01;;;;;;;12.55;6.38;;;19.10;99.90;;;;;;5041944;28;20201;-93
2021/09/23 12:47:28;;;;;;;9.90;5.95;;;19.00;99.90;;;;;;5041429;28;20174;-92
2021/09/23 12:49:54;;;;;;;7.72;6.32;;;19.00;99.90;;;;;;5039290;28;20209;-93
2021/09/23 12:52:38;;;;;;;11.68;6.47;;;19.00;99.90;;;;;;5039479;28;20169;-95
2021/09/23 12:55:25;;;;;;;11.02;5.63;;;19.00;99.90;;;;;;5039714;28;20166;-96
2021/09/23 12:57:59;;;;;;;8.43;5.30;;;19.00;99.90;;;;;;5040219;28;20190;-94
2021/09/23 13:00:40;;;;;;;11.55;5.38;;;19.00;99.90;;;;;;5039523;28;20205;-95
2021/09/23 13:03:17;;;;;;;8.23;5.13;;;19.00;99.90;;;;;;5039755;28;20171;-95
2021/09/23 13:05:47;;;;;;;8.40;5.55;;;19.10;99.90;;;;;;5039206;28;20198;-95
2021/09/23 13:08:41;;;;;;;8.45;5.00;;;19.10;99.90;;;;;;5038487;28;20206;-94
2021/09/23 13:11:23;;;;;;;14.25;5.75;;;19.20;99.90;;;;;;5038440;28;20197;-94
2021/09/23 13:14:21;;;;;;;10.95;5.70;;;19.30;99.90;;;;;;5038792;28;20607;-94